sensor_id;sensor_type;location;lat;lon;timestamp;P1;durP1;ratioP1;P2;durP2;ratioP2
64757;SDS011;51193;45.588;5.376;2022-10-22T00:00:13;5.40;;;1.20;;
64757;SDS011;51193;45.588;5.376;2022-10-22T00:03:15;4.68;;;1.20;;
64757;SDS011;51193;45.588;5.376;2022-10-22T00:05:44;3.20;;;1.20;;
64757;SDS011;51193;45.588;5.376;2022-10-22T00:08:33;4.82;;;1.15;;
64757;SDS011;51193;45.588;5.376;2022-10-22T00:11:21;3.58;;;1.23;;
64757;SDS011;51193;45.588;5.376;2022-10-22T00:14:05;5.10;;;1.10;;
64757;SDS011;51193;45.588;5.376;2022-10-22T00:19:35;4.32;;;0.80;;
64757;SDS011;51193;45.588;5.376;2022-10-22T00:22:33;1.73;;;0.88;;
64757;SDS011;51193;45.588;5.376;2022-10-22T00:25:34;5.28;;;1.08;;
64757;SDS011;51193;45.588;5.376;2022-10-22T00:28:20;1.15;;;0.60;;
64757;SDS011;51193;45.588;5.376;2022-10-22T00:31:01;1.50;;;0.80;;
64757;SDS011;51193;45.588;5.376;2022-10-22T00:33:30;1.45;;;0.85;;
64757;SDS011;51193;45.588;5.376;2022-10-22T00:36:17;4.28;;;1.30;;
64757;SDS011;51193;45.588;5.376;2022-10-22T00:38:57;2.05;;;1.20;;
64757;SDS011;51193;45.588;5.376;2022-10-22T00:50:59;1.88;;;1.20;;
64757;SDS011;51193;45.588;5.376;2022-10-22T00:53:44;5.43;;;1.10;;
64757;SDS011;51193;45.588;5.376;2022-10-22T01:39:18;5.35;;;0.73;;
64757;SDS011;51193;45.588;5.376;2022-10-22T01:42:11;2.38;;;0.65;;
64757;SDS011;51193;45.588;5.376;2022-10-22T02:04:34;1.90;;;0.70;;
64757;SDS011;51193;45.588;5.376;2022-10-22T02:14:56;1.55;;;0.50;;
64757;SDS011;51193;45.588;5.376;2022-10-22T02:21:29;1.98;;;0.70;;
64757;SDS011;51193;45.588;5.376;2022-10-22T02:23:58;1.10;;;0.50;;
64757;SDS011;51193;45.588;5.376;2022-10-22T02:26:28;1.65;;;0.63;;
64757;SDS011;51193;45.588;5.376;2022-10-22T02:29:08;0.85;;;0.60;;
64757;SDS011;51193;45.588;5.376;2022-10-22T02:31:39;3.35;;;0.75;;
64757;SDS011;51193;45.588;5.376;2022-10-22T02:34:09;4.03;;;0.80;;
64757;SDS011;51193;45.588;5.376;2022-10-22T02:36:47;1.92;;;0.90;;
64757;SDS011;51193;45.588;5.376;2022-10-22T02:39:35;2.15;;;0.80;;
64757;SDS011;51193;45.588;5.376;2022-10-22T02:42:14;2.50;;;0.60;;
64757;SDS011;51193;45.588;5.376;2022-10-22T02:45:17;3.38;;;0.80;;
64757;SDS011;51193;45.588;5.376;2022-10-22T02:47:52;2.30;;;0.70;;
64757;SDS011;51193;45.588;5.376;2022-10-22T02:50:19;1.77;;;0.85;;
64757;SDS011;51193;45.588;5.376;2022-10-22T02:53:24;4.15;;;0.80;;
64757;SDS011;51193;45.588;5.376;2022-10-22T02:55:55;2.88;;;0.85;;
64757;SDS011;51193;45.588;5.376;2022-10-22T02:58:59;3.47;;;0.82;;
64757;SDS011;51193;45.588;5.376;2022-10-22T03:02:01;3.25;;;0.85;;
64757;SDS011;51193;45.588;5.376;2022-10-22T03:04:41;0.93;;;0.55;;
64757;SDS011;51193;45.588;5.376;2022-10-22T03:07:19;2.00;;;0.68;;
64757;SDS011;51193;45.588;5.376;2022-10-22T03:10:10;2.55;;;0.90;;
64757;SDS011;51193;45.588;5.376;2022-10-22T03:13:08;2.53;;;0.60;;
64757;SDS011;51193;45.588;5.376;2022-10-22T03:15:46;2.25;;;0.80;;
64757;SDS011;51193;45.588;5.376;2022-10-22T03:18:27;0.77;;;0.50;;
64757;SDS011;51193;45.588;5.376;2022-10-22T03:21:48;1.95;;;0.70;;
64757;SDS011;51193;45.588;5.376;2022-10-22T03:27:42;2.28;;;0.95;;
64757;SDS011;51193;45.588;5.376;2022-10-22T03:31:13;3.58;;;0.90;;
64757;SDS011;51193;45.588;5.376;2022-10-22T03:34:29;4.10;;;0.90;;
64757;SDS011;51193;45.588;5.376;2022-10-22T03:37:09;2.65;;;0.80;;
64757;SDS011;51193;45.588;5.376;2022-10-22T03:39:41;3.08;;;0.80;;
64757;SDS011;51193;45.588;5.376;2022-10-22T03:42:23;3.85;;;0.85;;
64757;SDS011;51193;45.588;5.376;2022-10-22T03:44:48;5.30;;;0.80;;
64757;SDS011;51193;45.588;5.376;2022-10-22T03:50:24;1.70;;;0.70;;
64757;SDS011;51193;45.588;5.376;2022-10-22T03:53:03;2.05;;;0.90;;
64757;SDS011;51193;45.588;5.376;2022-10-22T03:55:52;4.47;;;1.15;;
64757;SDS011;51193;45.588;5.376;2022-10-22T03:58:25;3.63;;;0.80;;
64757;SDS011;51193;45.588;5.376;2022-10-22T04:01:13;3.85;;;1.08;;
64757;SDS011;51193;45.588;5.376;2022-10-22T04:06:47;3.55;;;1.00;;
64757;SDS011;51193;45.588;5.376;2022-10-22T04:09:29;1.48;;;0.77;;
64757;SDS011;51193;45.588;5.376;2022-10-22T04:12:10;2.58;;;0.75;;
64757;SDS011;51193;45.588;5.376;2022-10-22T04:14:59;3.50;;;1.00;;
64757;SDS011;51193;45.588;5.376;2022-10-22T04:17:41;3.00;;;0.90;;
64757;SDS011;51193;45.588;5.376;2022-10-22T04:20:23;2.88;;;0.90;;
64757;SDS011;51193;45.588;5.376;2022-10-22T04:23:20;3.95;;;1.45;;
64757;SDS011;51193;45.588;5.376;2022-10-22T04:26:15;5.97;;;1.17;;
64757;SDS011;51193;45.588;5.376;2022-10-22T04:29:18;3.60;;;1.10;;
64757;SDS011;51193;45.588;5.376;2022-10-22T04:34:53;2.97;;;1.30;;
64757;SDS011;51193;45.588;5.376;2022-10-22T04:37:29;2.47;;;0.90;;
64757;SDS011;51193;45.588;5.376;2022-10-22T04:40:09;3.85;;;0.90;;
64757;SDS011;51193;45.588;5.376;2022-10-22T04:42:38;1.83;;;1.17;;
64757;SDS011;51193;45.588;5.376;2022-10-22T04:45:04;3.75;;;0.90;;
64757;SDS011;51193;45.588;5.376;2022-10-22T04:47:40;2.97;;;1.10;;
64757;SDS011;51193;45.588;5.376;2022-10-22T04:50:40;3.92;;;1.00;;
64757;SDS011;51193;45.588;5.376;2022-10-22T04:56:29;2.33;;;0.90;;
64757;SDS011;51193;45.588;5.376;2022-10-22T04:59:04;3.70;;;1.00;;
64757;SDS011;51193;45.588;5.376;2022-10-22T05:01:36;1.95;;;1.00;;
64757;SDS011;51193;45.588;5.376;2022-10-22T05:04:13;3.47;;;1.00;;
64757;SDS011;51193;45.588;5.376;2022-10-22T05:06:40;4.82;;;0.85;;
64757;SDS011;51193;45.588;5.376;2022-10-22T05:09:12;2.17;;;0.82;;
64757;SDS011;51193;45.588;5.376;2022-10-22T05:12:01;2.08;;;0.70;;
64757;SDS011;51193;45.588;5.376;2022-10-22T05:14:30;2.00;;;0.88;;
64757;SDS011;51193;45.588;5.376;2022-10-22T05:16:57;3.15;;;0.80;;
64757;SDS011;51193;45.588;5.376;2022-10-22T05:19:29;2.83;;;0.85;;
64757;SDS011;51193;45.588;5.376;2022-10-22T05:21:59;1.30;;;0.70;;
64757;SDS011;51193;45.588;5.376;2022-10-22T05:24:27;3.00;;;0.77;;
64757;SDS011;51193;45.588;5.376;2022-10-22T05:26:57;0.88;;;0.63;;
64757;SDS011;51193;45.588;5.376;2022-10-22T05:29:24;2.25;;;0.90;;
64757;SDS011;51193;45.588;5.376;2022-10-22T05:31:54;1.73;;;0.73;;
64757;SDS011;51193;45.588;5.376;2022-10-22T05:34:25;1.65;;;0.80;;
64757;SDS011;51193;45.588;5.376;2022-10-22T05:37:04;0.98;;;0.75;;
64757;SDS011;51193;45.588;5.376;2022-10-22T05:39:38;1.20;;;0.73;;
64757;SDS011;51193;45.588;5.376;2022-10-22T05:42:16;2.22;;;0.90;;
64757;SDS011;51193;45.588;5.376;2022-10-22T05:45:06;3.00;;;0.80;;
64757;SDS011;51193;45.588;5.376;2022-10-22T05:47:32;1.77;;;0.70;;
64757;SDS011;51193;45.588;5.376;2022-10-22T05:50:09;1.15;;;0.65;;
64757;SDS011;51193;45.588;5.376;2022-10-22T05:52:46;3.03;;;0.60;;
64757;SDS011;51193;45.588;5.376;2022-10-22T05:55:50;3.00;;;0.68;;
64757;SDS011;51193;45.588;5.376;2022-10-22T05:58:30;2.63;;;0.80;;
64757;SDS011;51193;45.588;5.376;2022-10-22T06:01:33;6.30;;;0.93;;
64757;SDS011;51193;45.588;5.376;2022-10-22T06:07:20;1.27;;;0.70;;
64757;SDS011;51193;45.588;5.376;2022-10-22T06:10:27;1.75;;;0.77;;
64757;SDS011;51193;45.588;5.376;2022-10-22T06:13:02;4.82;;;0.80;;
64757;SDS011;51193;45.588;5.376;2022-10-22T06:15:32;2.33;;;0.88;;
64757;SDS011;51193;45.588;5.376;2022-10-22T06:18:10;3.22;;;0.75;;
64757;SDS011;51193;45.588;5.376;2022-10-22T06:23:19;4.95;;;1.00;;
64757;SDS011;51193;45.588;5.376;2022-10-22T06:28:58;2.77;;;0.90;;
64757;SDS011;51193;45.588;5.376;2022-10-22T06:31:27;3.83;;;1.38;;
64757;SDS011;51193;45.588;5.376;2022-10-22T06:36:26;2.38;;;1.00;;
64757;SDS011;51193;45.588;5.376;2022-10-22T06:38:52;3.95;;;0.98;;
64757;SDS011;51193;45.588;5.376;2022-10-22T06:41:21;2.70;;;1.10;;
64757;SDS011;51193;45.588;5.376;2022-10-22T06:43:57;2.97;;;0.88;;
64757;SDS011;51193;45.588;5.376;2022-10-22T06:46:24;4.63;;;1.00;;
64757;SDS011;51193;45.588;5.376;2022-10-22T06:49:02;3.88;;;1.00;;
64757;SDS011;51193;45.588;5.376;2022-10-22T06:51:50;3.50;;;0.98;;
64757;SDS011;51193;45.588;5.376;2022-10-22T06:54:36;4.03;;;1.00;;
64757;SDS011;51193;45.588;5.376;2022-10-22T06:57:09;2.67;;;1.25;;
64757;SDS011;51193;45.588;5.376;2022-10-22T06:59:41;3.10;;;0.80;;
64757;SDS011;51193;45.588;5.376;2022-10-22T07:02:07;5.55;;;1.08;;
64757;SDS011;51193;45.588;5.376;2022-10-22T07:04:43;1.70;;;0.80;;
64757;SDS011;51193;45.588;5.376;2022-10-22T07:07:08;1.05;;;0.65;;
64757;SDS011;51193;45.588;5.376;2022-10-22T07:09:41;2.60;;;0.63;;
64757;SDS011;51193;45.588;5.376;2022-10-22T07:12:11;2.70;;;0.70;;
64757;SDS011;51193;45.588;5.376;2022-10-22T07:14:39;1.17;;;0.70;;
64757;SDS011;51193;45.588;5.376;2022-10-22T07:17:43;1.27;;;0.75;;
64757;SDS011;51193;45.588;5.376;2022-10-22T07:20:14;4.30;;;0.90;;
64757;SDS011;51193;45.588;5.376;2022-10-22T07:22:53;4.95;;;0.98;;
64757;SDS011;51193;45.588;5.376;2022-10-22T07:25:42;0.93;;;0.63;;
64757;SDS011;51193;45.588;5.376;2022-10-22T07:28:15;4.68;;;0.77;;
64757;SDS011;51193;45.588;5.376;2022-10-22T07:30:47;1.92;;;0.80;;
64757;SDS011;51193;45.588;5.376;2022-10-22T07:33:34;1.45;;;0.65;;
64757;SDS011;51193;45.588;5.376;2022-10-22T07:36:20;2.20;;;0.82;;
64757;SDS011;51193;45.588;5.376;2022-10-22T07:39:08;1.90;;;0.88;;
64757;SDS011;51193;45.588;5.376;2022-10-22T07:41:37;2.97;;;0.80;;
64757;SDS011;51193;45.588;5.376;2022-10-22T07:44:03;2.65;;;0.70;;
64757;SDS011;51193;45.588;5.376;2022-10-22T07:46:28;2.97;;;0.80;;
64757;SDS011;51193;45.588;5.376;2022-10-22T07:49:02;4.30;;;0.70;;
64757;SDS011;51193;45.588;5.376;2022-10-22T07:51:37;2.65;;;0.68;;
64757;SDS011;51193;45.588;5.376;2022-10-22T07:54:02;3.20;;;0.95;;
64757;SDS011;51193;45.588;5.376;2022-10-22T07:56:28;3.33;;;0.90;;
64757;SDS011;51193;45.588;5.376;2022-10-22T07:58:54;1.20;;;0.80;;
64757;SDS011;51193;45.588;5.376;2022-10-22T08:01:22;5.72;;;0.80;;
64757;SDS011;51193;45.588;5.376;2022-10-22T08:03:48;2.72;;;0.70;;
64757;SDS011;51193;45.588;5.376;2022-10-22T08:06:14;0.82;;;0.60;;
64757;SDS011;51193;45.588;5.376;2022-10-22T08:08:51;2.90;;;0.70;;
64757;SDS011;51193;45.588;5.376;2022-10-22T08:12:07;1.70;;;0.70;;
64757;SDS011;51193;45.588;5.376;2022-10-22T08:14:45;2.38;;;0.68;;
64757;SDS011;51193;45.588;5.376;2022-10-22T08:17:10;0.60;;;0.50;;
64757;SDS011;51193;45.588;5.376;2022-10-22T08:19:35;2.03;;;0.70;;
64757;SDS011;51193;45.588;5.376;2022-10-22T08:22:01;3.97;;;0.50;;
64757;SDS011;51193;45.588;5.376;2022-10-22T08:24:27;2.17;;;0.70;;
64757;SDS011;51193;45.588;5.376;2022-10-22T08:26:53;3.05;;;0.70;;
64757;SDS011;51193;45.588;5.376;2022-10-22T08:29:20;2.28;;;0.60;;
64757;SDS011;51193;45.588;5.376;2022-10-22T08:31:48;1.15;;;0.40;;
64757;SDS011;51193;45.588;5.376;2022-10-22T08:34:14;4.35;;;0.70;;
64757;SDS011;51193;45.588;5.376;2022-10-22T08:36:39;2.22;;;0.50;;
64757;SDS011;51193;45.588;5.376;2022-10-22T08:39:05;2.75;;;0.63;;
64757;SDS011;51193;45.588;5.376;2022-10-22T08:41:30;1.10;;;0.57;;
64757;SDS011;51193;45.588;5.376;2022-10-22T08:49:38;7.22;;;0.85;;
64757;SDS011;51193;45.588;5.376;2022-10-22T08:52:13;2.80;;;0.50;;
64757;SDS011;51193;45.588;5.376;2022-10-22T09:00:20;2.38;;;0.55;;
64757;SDS011;51193;45.588;5.376;2022-10-22T09:03:00;6.63;;;0.90;;
64757;SDS011;51193;45.588;5.376;2022-10-22T09:08:20;6.40;;;1.00;;
64757;SDS011;51193;45.588;5.376;2022-10-22T09:10:48;2.58;;;0.65;;
64757;SDS011;51193;45.588;5.376;2022-10-22T09:13:18;3.15;;;0.77;;
64757;SDS011;51193;45.588;5.376;2022-10-22T09:15:48;18.08;;;2.03;;
64757;SDS011;51193;45.588;5.376;2022-10-22T09:18:35;3.42;;;0.68;;
64757;SDS011;51193;45.588;5.376;2022-10-22T09:24:51;1.10;;;0.60;;
64757;SDS011;51193;45.588;5.376;2022-10-22T09:27:11;4.25;;;0.57;;
64757;SDS011;51193;45.588;5.376;2022-10-22T09:29:42;2.35;;;0.60;;
64757;SDS011;51193;45.588;5.376;2022-10-22T09:32:08;3.08;;;0.60;;
64757;SDS011;51193;45.588;5.376;2022-10-22T09:34:34;0.88;;;0.40;;
64757;SDS011;51193;45.588;5.376;2022-10-22T09:37:00;2.17;;;0.50;;
64757;SDS011;51193;45.588;5.376;2022-10-22T09:39:33;2.30;;;0.50;;
64757;SDS011;51193;45.588;5.376;2022-10-22T09:42:01;2.05;;;0.55;;
64757;SDS011;51193;45.588;5.376;2022-10-22T09:44:27;1.50;;;0.73;;
64757;SDS011;51193;45.588;5.376;2022-10-22T09:46:56;3.42;;;0.50;;
64757;SDS011;51193;45.588;5.376;2022-10-22T09:49:22;2.17;;;0.50;;
64757;SDS011;51193;45.588;5.376;2022-10-22T09:54:21;3.10;;;0.70;;
64757;SDS011;51193;45.588;5.376;2022-10-22T09:56:56;3.08;;;0.63;;
64757;SDS011;51193;45.588;5.376;2022-10-22T09:59:29;1.05;;;0.60;;
64757;SDS011;51193;45.588;5.376;2022-10-22T10:02:18;2.28;;;0.57;;
64757;SDS011;51193;45.588;5.376;2022-10-22T10:04:46;4.38;;;0.52;;
64757;SDS011;51193;45.588;5.376;2022-10-22T10:07:15;0.95;;;0.55;;
64757;SDS011;51193;45.588;5.376;2022-10-22T10:09:45;3.22;;;0.75;;
64757;SDS011;51193;45.588;5.376;2022-10-22T10:12:28;2.70;;;0.75;;
64757;SDS011;51193;45.588;5.376;2022-10-22T10:28:48;5.35;;;0.70;;
64757;SDS011;51193;45.588;5.376;2022-10-22T10:31:37;4.95;;;0.63;;
64757;SDS011;51193;45.588;5.376;2022-10-22T10:34:45;2.40;;;0.70;;
64757;SDS011;51193;45.588;5.376;2022-10-22T10:37:23;2.55;;;0.80;;
64757;SDS011;51193;45.588;5.376;2022-10-22T10:42:40;3.50;;;0.75;;
64757;SDS011;51193;45.588;5.376;2022-10-22T10:45:22;4.13;;;0.68;;
64757;SDS011;51193;45.588;5.376;2022-10-22T10:50:51;1.48;;;0.70;;
64757;SDS011;51193;45.588;5.376;2022-10-22T11:07:04;2.45;;;1.00;;
64757;SDS011;51193;45.588;5.376;2022-10-22T11:12:10;3.03;;;1.00;;
64757;SDS011;51193;45.588;5.376;2022-10-22T11:17:38;3.70;;;1.08;;
64757;SDS011;51193;45.588;5.376;2022-10-22T11:20:14;4.72;;;1.17;;
64757;SDS011;51193;45.588;5.376;2022-10-22T11:22:47;4.00;;;1.00;;
64757;SDS011;51193;45.588;5.376;2022-10-22T11:25:23;3.35;;;1.10;;
64757;SDS011;51193;45.588;5.376;2022-10-22T11:30:21;3.15;;;1.40;;
64757;SDS011;51193;45.588;5.376;2022-10-22T11:32:50;3.08;;;1.23;;
64757;SDS011;51193;45.588;5.376;2022-10-22T11:35:24;2.00;;;1.10;;
64757;SDS011;51193;45.588;5.376;2022-10-22T11:38:14;8.47;;;1.10;;
64757;SDS011;51193;45.588;5.376;2022-10-22T11:41:15;19.98;;;2.08;;
64757;SDS011;51193;45.588;5.376;2022-10-22T11:43:56;3.88;;;1.20;;
64757;SDS011;51193;45.588;5.376;2022-10-22T11:46:33;5.70;;;1.20;;
64757;SDS011;51193;45.588;5.376;2022-10-22T11:49:14;5.90;;;1.20;;
64757;SDS011;51193;45.588;5.376;2022-10-22T11:51:42;2.90;;;1.15;;
64757;SDS011;51193;45.588;5.376;2022-10-22T11:59:39;6.43;;;1.30;;
64757;SDS011;51193;45.588;5.376;2022-10-22T12:16:25;5.03;;;1.40;;
64757;SDS011;51193;45.588;5.376;2022-10-22T12:19:58;4.80;;;1.25;;
64757;SDS011;51193;45.588;5.376;2022-10-22T12:21:58;3.92;;;1.17;;
64757;SDS011;51193;45.588;5.376;2022-10-22T12:24:28;4.45;;;1.40;;
64757;SDS011;51193;45.588;5.376;2022-10-22T12:26:57;2.78;;;1.20;;
64757;SDS011;51193;45.588;5.376;2022-10-22T12:29:22;3.25;;;1.23;;
64757;SDS011;51193;45.588;5.376;2022-10-22T12:31:49;4.97;;;1.35;;
64757;SDS011;51193;45.588;5.376;2022-10-22T12:34:16;2.75;;;1.35;;
64757;SDS011;51193;45.588;5.376;2022-10-22T12:36:44;6.35;;;1.48;;
64757;SDS011;51193;45.588;5.376;2022-10-22T12:39:13;4.85;;;1.27;;
64757;SDS011;51193;45.588;5.376;2022-10-22T12:41:40;4.78;;;1.17;;
64757;SDS011;51193;45.588;5.376;2022-10-22T12:44:05;7.88;;;1.48;;
64757;SDS011;51193;45.588;5.376;2022-10-22T12:46:34;5.63;;;1.30;;
64757;SDS011;51193;45.588;5.376;2022-10-22T12:49:04;3.20;;;1.27;;
64757;SDS011;51193;45.588;5.376;2022-10-22T12:51:35;3.13;;;1.40;;
64757;SDS011;51193;45.588;5.376;2022-10-22T12:54:03;3.45;;;1.40;;
64757;SDS011;51193;45.588;5.376;2022-10-22T12:56:33;3.58;;;1.30;;
64757;SDS011;51193;45.588;5.376;2022-10-22T12:59:02;2.70;;;1.30;;
64757;SDS011;51193;45.588;5.376;2022-10-22T13:01:33;4.57;;;1.42;;
64757;SDS011;51193;45.588;5.376;2022-10-22T13:04:04;4.35;;;1.50;;
64757;SDS011;51193;45.588;5.376;2022-10-22T13:06:32;2.25;;;1.17;;
64757;SDS011;51193;45.588;5.376;2022-10-22T13:11:29;4.30;;;1.20;;
64757;SDS011;51193;45.588;5.376;2022-10-22T13:22:35;3.85;;;1.10;;
64757;SDS011;51193;45.588;5.376;2022-10-22T13:27:46;3.10;;;1.00;;
64757;SDS011;51193;45.588;5.376;2022-10-22T13:30:22;4.97;;;1.30;;
64757;SDS011;51193;45.588;5.376;2022-10-22T13:32:52;2.80;;;1.23;;
64757;SDS011;51193;45.588;5.376;2022-10-22T13:35:21;4.07;;;1.40;;
64757;SDS011;51193;45.588;5.376;2022-10-22T13:37:49;4.60;;;1.45;;
64757;SDS011;51193;45.588;5.376;2022-10-22T13:40:14;3.78;;;1.25;;
64757;SDS011;51193;45.588;5.376;2022-10-22T13:42:40;2.15;;;1.25;;
64757;SDS011;51193;45.588;5.376;2022-10-22T13:45:05;3.42;;;1.50;;
64757;SDS011;51193;45.588;5.376;2022-10-22T13:47:31;5.25;;;1.30;;
64757;SDS011;51193;45.588;5.376;2022-10-22T13:49:59;5.32;;;1.38;;
64757;SDS011;51193;45.588;5.376;2022-10-22T13:52:27;3.97;;;1.33;;
64757;SDS011;51193;45.588;5.376;2022-10-22T13:54:58;2.35;;;1.10;;
64757;SDS011;51193;45.588;5.376;2022-10-22T13:57:23;6.35;;;1.45;;
64757;SDS011;51193;45.588;5.376;2022-10-22T13:59:48;3.97;;;1.27;;
64757;SDS011;51193;45.588;5.376;2022-10-22T14:02:14;6.80;;;1.45;;
64757;SDS011;51193;45.588;5.376;2022-10-22T14:04:40;4.82;;;1.20;;
64757;SDS011;51193;45.588;5.376;2022-10-22T14:07:15;4.13;;;1.20;;
64757;SDS011;51193;45.588;5.376;2022-10-22T14:09:41;4.13;;;1.20;;
64757;SDS011;51193;45.588;5.376;2022-10-22T14:12:14;4.15;;;1.30;;
64757;SDS011;51193;45.588;5.376;2022-10-22T14:14:41;6.15;;;1.52;;
64757;SDS011;51193;45.588;5.376;2022-10-22T14:17:10;4.05;;;1.10;;
64757;SDS011;51193;45.588;5.376;2022-10-22T14:19:41;4.13;;;1.10;;
64757;SDS011;51193;45.588;5.376;2022-10-22T14:22:12;3.13;;;1.20;;
64757;SDS011;51193;45.588;5.376;2022-10-22T14:24:38;4.55;;;1.10;;
64757;SDS011;51193;45.588;5.376;2022-10-22T14:27:04;3.67;;;1.00;;
64757;SDS011;51193;45.588;5.376;2022-10-22T14:29:29;2.10;;;1.00;;
64757;SDS011;51193;45.588;5.376;2022-10-22T14:31:54;2.08;;;0.80;;
64757;SDS011;51193;45.588;5.376;2022-10-22T14:34:20;2.95;;;1.00;;
64757;SDS011;51193;45.588;5.376;2022-10-22T14:36:45;1.92;;;0.90;;
64757;SDS011;51193;45.588;5.376;2022-10-22T14:39:11;4.93;;;1.10;;
64757;SDS011;51193;45.588;5.376;2022-10-22T14:41:38;4.95;;;1.20;;
64757;SDS011;51193;45.588;5.376;2022-10-22T14:44:04;3.05;;;1.00;;
64757;SDS011;51193;45.588;5.376;2022-10-22T14:46:30;3.65;;;1.00;;
64757;SDS011;51193;45.588;5.376;2022-10-22T14:48:55;3.72;;;0.93;;
64757;SDS011;51193;45.588;5.376;2022-10-22T14:51:21;3.42;;;0.85;;
64757;SDS011;51193;45.588;5.376;2022-10-22T14:53:47;2.55;;;0.90;;
64757;SDS011;51193;45.588;5.376;2022-10-22T14:56:13;2.95;;;0.93;;
64757;SDS011;51193;45.588;5.376;2022-10-22T14:58:41;1.83;;;0.90;;
64757;SDS011;51193;45.588;5.376;2022-10-22T15:01:07;2.40;;;1.10;;
64757;SDS011;51193;45.588;5.376;2022-10-22T15:03:34;2.28;;;0.73;;
64757;SDS011;51193;45.588;5.376;2022-10-22T15:06:00;4.28;;;1.00;;
64757;SDS011;51193;45.588;5.376;2022-10-22T15:08:25;2.28;;;1.08;;
64757;SDS011;51193;45.588;5.376;2022-10-22T15:10:58;9.68;;;1.50;;
64757;SDS011;51193;45.588;5.376;2022-10-22T15:13:25;3.70;;;1.42;;
64757;SDS011;51193;45.588;5.376;2022-10-22T15:15:51;1.45;;;1.35;;
64757;SDS011;51193;45.588;5.376;2022-10-22T15:18:17;3.05;;;0.80;;
64757;SDS011;51193;45.588;5.376;2022-10-22T15:20:42;2.42;;;0.93;;
64757;SDS011;51193;45.588;5.376;2022-10-22T15:23:08;7.85;;;0.88;;
64757;SDS011;51193;45.588;5.376;2022-10-22T15:25:33;3.75;;;0.77;;
64757;SDS011;51193;45.588;5.376;2022-10-22T15:27:58;1.33;;;0.75;;
64757;SDS011;51193;45.588;5.376;2022-10-22T15:30:24;1.85;;;0.82;;
64757;SDS011;51193;45.588;5.376;2022-10-22T15:32:49;2.75;;;0.70;;
64757;SDS011;51193;45.588;5.376;2022-10-22T15:35:14;4.18;;;1.00;;
64757;SDS011;51193;45.588;5.376;2022-10-22T15:37:40;4.07;;;0.80;;
64757;SDS011;51193;45.588;5.376;2022-10-22T15:40:05;6.78;;;0.93;;
64757;SDS011;51193;45.588;5.376;2022-10-22T15:42:32;4.15;;;0.80;;
64757;SDS011;51193;45.588;5.376;2022-10-22T15:44:58;3.92;;;0.60;;
64757;SDS011;51193;45.588;5.376;2022-10-22T15:47:23;1.30;;;0.73;;
64757;SDS011;51193;45.588;5.376;2022-10-22T15:49:52;3.65;;;0.60;;
64757;SDS011;51193;45.588;5.376;2022-10-22T15:52:18;1.92;;;0.90;;
64757;SDS011;51193;45.588;5.376;2022-10-22T15:54:45;3.97;;;1.30;;
64757;SDS011;51193;45.588;5.376;2022-10-22T15:57:11;3.47;;;1.00;;
64757;SDS011;51193;45.588;5.376;2022-10-22T15:59:36;2.92;;;0.75;;
64757;SDS011;51193;45.588;5.376;2022-10-22T16:02:02;3.65;;;0.95;;
64757;SDS011;51193;45.588;5.376;2022-10-22T16:07:51;5.78;;;0.85;;
64757;SDS011;51193;45.588;5.376;2022-10-22T16:10:25;1.50;;;0.70;;
64757;SDS011;51193;45.588;5.376;2022-10-22T17:28:57;3.47;;;1.27;;
64757;SDS011;51193;45.588;5.376;2022-10-22T17:31:49;2.30;;;1.00;;
64757;SDS011;51193;45.588;5.376;2022-10-22T17:34:40;3.45;;;0.90;;
64757;SDS011;51193;45.588;5.376;2022-10-22T17:37:11;4.07;;;1.10;;
64757;SDS011;51193;45.588;5.376;2022-10-22T17:39:48;3.40;;;0.95;;
64757;SDS011;51193;45.588;5.376;2022-10-22T17:45:11;2.22;;;0.85;;
64757;SDS011;51193;45.588;5.376;2022-10-22T17:47:48;1.08;;;0.88;;
64757;SDS011;51193;45.588;5.376;2022-10-22T17:50:22;1.15;;;0.73;;
64757;SDS011;51193;45.588;5.376;2022-10-22T17:53:09;0.95;;;0.70;;
64757;SDS011;51193;45.588;5.376;2022-10-22T17:55:45;3.30;;;0.80;;
64757;SDS011;51193;45.588;5.376;2022-10-22T17:58:12;3.20;;;0.73;;
64757;SDS011;51193;45.588;5.376;2022-10-22T18:00:41;5.13;;;0.90;;
64757;SDS011;51193;45.588;5.376;2022-10-22T18:03:11;2.58;;;0.77;;
64757;SDS011;51193;45.588;5.376;2022-10-22T18:05:43;4.30;;;0.80;;
64757;SDS011;51193;45.588;5.376;2022-10-22T18:08:15;2.58;;;0.70;;
64757;SDS011;51193;45.588;5.376;2022-10-22T18:10:48;1.52;;;0.70;;
64757;SDS011;51193;45.588;5.376;2022-10-22T18:13:26;3.50;;;0.90;;
64757;SDS011;51193;45.588;5.376;2022-10-22T18:18:37;2.45;;;0.73;;
64757;SDS011;51193;45.588;5.376;2022-10-22T18:21:30;3.42;;;0.60;;
64757;SDS011;51193;45.588;5.376;2022-10-22T18:24:02;1.92;;;0.82;;
64757;SDS011;51193;45.588;5.376;2022-10-22T18:26:34;2.35;;;0.65;;
64757;SDS011;51193;45.588;5.376;2022-10-22T18:29:02;1.38;;;0.75;;
64757;SDS011;51193;45.588;5.376;2022-10-22T18:31:34;0.77;;;0.73;;
64757;SDS011;51193;45.588;5.376;2022-10-22T19:08:14;2.22;;;0.77;;
64757;SDS011;51193;45.588;5.376;2022-10-22T19:11:12;1.02;;;0.60;;
64757;SDS011;51193;45.588;5.376;2022-10-22T19:13:54;2.92;;;0.82;;
64757;SDS011;51193;45.588;5.376;2022-10-22T19:16:23;3.55;;;0.68;;
64757;SDS011;51193;45.588;5.376;2022-10-22T19:19:10;0.70;;;0.70;;
64757;SDS011;51193;45.588;5.376;2022-10-22T19:21:51;1.65;;;0.52;;
64757;SDS011;51193;45.588;5.376;2022-10-22T19:24:49;1.52;;;0.85;;
64757;SDS011;51193;45.588;5.376;2022-10-22T19:27:23;2.80;;;0.70;;
64757;SDS011;51193;45.588;5.376;2022-10-22T19:30:11;2.63;;;0.93;;
64757;SDS011;51193;45.588;5.376;2022-10-22T19:33:05;4.57;;;1.00;;
64757;SDS011;51193;45.588;5.376;2022-10-22T19:36:15;5.00;;;1.13;;
64757;SDS011;51193;45.588;5.376;2022-10-22T19:43:04;5.35;;;1.10;;
64757;SDS011;51193;45.588;5.376;2022-10-22T19:53:00;4.82;;;1.40;;
64757;SDS011;51193;45.588;5.376;2022-10-22T19:59:26;6.22;;;1.55;;
64757;SDS011;51193;45.588;5.376;2022-10-22T20:02:07;7.38;;;1.95;;
64757;SDS011;51193;45.588;5.376;2022-10-22T20:04:47;8.38;;;1.98;;
64757;SDS011;51193;45.588;5.376;2022-10-22T20:10:49;6.65;;;1.92;;
64757;SDS011;51193;45.588;5.376;2022-10-22T20:13:50;6.18;;;1.70;;
64757;SDS011;51193;45.588;5.376;2022-10-22T20:19:44;6.88;;;1.95;;
64757;SDS011;51193;45.588;5.376;2022-10-22T20:22:49;7.55;;;2.90;;
64757;SDS011;51193;45.588;5.376;2022-10-22T20:29:43;10.02;;;2.28;;
64757;SDS011;51193;45.588;5.376;2022-10-22T21:45:49;7.32;;;2.30;;
64757;SDS011;51193;45.588;5.376;2022-10-22T21:48:29;10.93;;;3.00;;
64757;SDS011;51193;45.588;5.376;2022-10-22T21:51:27;7.78;;;2.50;;
64757;SDS011;51193;45.588;5.376;2022-10-22T21:54:30;10.98;;;2.80;;
64757;SDS011;51193;45.588;5.376;2022-10-22T21:57:08;11.18;;;3.15;;
64757;SDS011;51193;45.588;5.376;2022-10-22T21:59:35;9.57;;;3.35;;
64757;SDS011;51193;45.588;5.376;2022-10-22T22:02:25;9.38;;;3.25;;
64757;SDS011;51193;45.588;5.376;2022-10-22T22:04:57;10.98;;;3.50;;
64757;SDS011;51193;45.588;5.376;2022-10-22T22:07:51;10.32;;;3.50;;
64757;SDS011;51193;45.588;5.376;2022-10-22T22:13:02;11.45;;;3.50;;
64757;SDS011;51193;45.588;5.376;2022-10-22T22:15:50;7.22;;;3.10;;
64757;SDS011;51193;45.588;5.376;2022-10-22T22:18:46;11.13;;;2.87;;
64757;SDS011;51193;45.588;5.376;2022-10-22T22:21:14;9.57;;;3.10;;
64757;SDS011;51193;45.588;5.376;2022-10-22T22:24:07;6.77;;;3.33;;
64757;SDS011;51193;45.588;5.376;2022-10-22T22:26:38;13.18;;;3.97;;
64757;SDS011;51193;45.588;5.376;2022-10-22T22:29:28;12.13;;;3.85;;
64757;SDS011;51193;45.588;5.376;2022-10-22T22:32:14;15.60;;;3.20;;
64757;SDS011;51193;45.588;5.376;2022-10-22T22:34:40;9.82;;;3.35;;
64757;SDS011;51193;45.588;5.376;2022-10-22T22:37:09;11.80;;;3.50;;
64757;SDS011;51193;45.588;5.376;2022-10-22T22:39:52;13.00;;;3.40;;
64757;SDS011;51193;45.588;5.376;2022-10-22T22:42:21;18.25;;;3.97;;
64757;SDS011;51193;45.588;5.376;2022-10-22T22:45:11;8.10;;;3.67;;
64757;SDS011;51193;45.588;5.376;2022-10-22T22:47:37;10.18;;;3.08;;